Main page
METAR-TAF:

METAR-TAF

Airports :

Frankfurt, Germany

Frankfurt Airport

latitude: 50-03N, longitude: 008-36E, elevation: 111 m

Current weather observation

The report was made 25 minutes ago, at 09:20 UTC
Wind 9 kt from the West, varying between South/Southwest and Northwest
Temperature 17°C
Humidity 68%
Pressure 1024 hPa
Visibility 10 km or more
Scattered clouds at a height of 2500 ft

METAR: EDDF 200920Z 26009KT 210V310 9999 SCT025 17/11 Q1024 NOSIG

Time: 11:45 (09:45 UTC)

Forecast

The report was made 4 hours and 45 minutes ago, at 05:00 UTC
Forecast valid from 20 at 06 UTC to 21 at 12 UTC
Wind 5 kt from the South/Southwest
Visibility 10 km or more
Few clouds at a height of 3500 ft
Becoming
from 20 at 08 UTC to 20 at 10 UTC
Wind 10 kt from the West
Becoming
from 20 at 18 UTC to 20 at 20 UTC
Wind 5 kt from the West
Becoming
from 20 at 22 UTC to 20 at 24 UTC
Wind 3 kt from the South/Southwest

TAF: EDDF 200500Z 2006/2112 20005KT 9999 FEW035 BECMG 2008/2010 27010KT BECMG 2018/2020 26005KT BECMG 2022/2024 20003KT

Weather observations and forecasts of more than 4000 airports (METAR and TAF reports).

The available stations are represented by yellow and red dots on the map.

Hover mouse over dot to see the name of the station.

Then click to see weather observations and forecasts.

To change the map : click on the green buttons with a black cross to zoom in, on the green button with a dash to zoom out, or on the green arrows for adjacent maps.


METAR-TAF: